createdAt,value
2019-05-05T00:00:19.908Z,0.00
2019-05-05T00:01:19.884Z,0.00
2019-05-05T00:02:19.858Z,0.00
2019-05-05T00:03:19.834Z,0.00
2019-05-05T00:04:19.807Z,0.00
2019-05-05T00:05:19.782Z,0.00
2019-05-05T00:06:19.757Z,0.00
2019-05-05T00:07:19.735Z,0.00
2019-05-05T00:08:19.706Z,0.00
2019-05-05T00:09:19.683Z,0.00
2019-05-05T00:10:19.657Z,0.00
2019-05-05T00:11:19.633Z,0.00
2019-05-05T00:12:19.606Z,0.00
2019-05-05T00:13:19.580Z,0.00
2019-05-05T00:14:19.556Z,0.00
2019-05-05T00:15:19.534Z,0.00
2019-05-05T00:16:19.505Z,0.00
2019-05-05T00:17:19.481Z,0.00
2019-05-05T00:18:19.455Z,0.00
2019-05-05T00:19:32.203Z,0.00
2019-05-05T00:20:19.408Z,0.00
2019-05-05T00:21:19.381Z,0.00
2019-05-05T00:22:19.355Z,0.00
2019-05-05T00:23:19.330Z,0.00
2019-05-05T00:24:19.304Z,0.00
2019-05-05T00:25:19.281Z,0.00
2019-05-05T00:26:19.254Z,0.00
2019-05-05T00:27:19.229Z,0.00
2019-05-05T00:28:19.203Z,0.00
2019-05-05T00:29:19.178Z,0.00
2019-05-05T00:30:19.154Z,0.00
2019-05-05T00:31:19.129Z,0.00
2019-05-05T00:32:19.103Z,0.00
2019-05-05T00:33:19.083Z,0.00
2019-05-05T00:34:19.053Z,0.00
2019-05-05T00:35:19.030Z,0.00
2019-05-05T00:36:19.004Z,0.00
2019-05-05T00:37:18.978Z,0.00
2019-05-05T00:38:18.953Z,0.00
2019-05-05T00:39:18.928Z,0.00
2019-05-05T00:40:18.902Z,0.00
2019-05-05T00:41:18.878Z,0.00
2019-05-05T00:42:18.853Z,0.00
2019-05-05T00:43:18.828Z,0.00
2019-05-05T00:44:18.803Z,0.00
2019-05-05T00:45:18.779Z,0.00
2019-05-05T00:46:18.752Z,0.00
2019-05-05T00:47:18.729Z,0.00
2019-05-05T00:48:18.702Z,0.00
2019-05-05T00:49:18.677Z,0.00
2019-05-05T00:50:18.652Z,0.00
2019-05-05T00:51:18.627Z,0.00
2019-05-05T00:52:18.607Z,0.00
2019-05-05T00:53:18.578Z,0.00
2019-05-05T00:54:18.553Z,0.00
2019-05-05T00:55:18.527Z,0.00
2019-05-05T00:56:18.501Z,0.00
2019-05-05T00:57:18.477Z,0.00
2019-05-05T00:58:18.455Z,0.00
2019-05-05T00:59:18.427Z,0.00
2019-05-05T01:00:18.401Z,0.00
2019-05-05T01:01:18.377Z,0.00
2019-05-05T01:02:18.350Z,0.00
2019-05-05T01:03:18.327Z,0.00
2019-05-05T01:04:18.304Z,0.00
2019-05-05T01:05:18.277Z,0.00
2019-05-05T01:06:18.250Z,0.00
2019-05-05T01:07:18.225Z,0.00
2019-05-05T01:08:18.199Z,0.00
2019-05-05T01:09:18.173Z,0.00
2019-05-05T01:10:18.150Z,0.00
2019-05-05T01:11:18.124Z,0.00
2019-05-05T01:12:18.099Z,0.00
2019-05-05T01:13:18.073Z,0.00
2019-05-05T01:14:18.054Z,0.00
2019-05-05T01:15:18.023Z,0.00
2019-05-05T01:16:17.997Z,0.00
2019-05-05T01:17:17.972Z,0.00
2019-05-05T01:18:17.947Z,0.00
2019-05-05T01:19:17.924Z,0.00
2019-05-05T01:20:17.896Z,0.00
2019-05-05T01:21:17.871Z,0.00
2019-05-05T01:22:17.846Z,0.00
2019-05-05T01:23:17.820Z,0.00
2019-05-05T01:24:17.797Z,0.00
2019-05-05T01:25:17.770Z,0.00
2019-05-05T01:26:17.745Z,0.00
2019-05-05T01:27:17.719Z,0.00
2019-05-05T01:28:17.693Z,0.00
2019-05-05T01:29:17.668Z,0.00
2019-05-05T01:30:17.647Z,0.00
2019-05-05T01:31:17.618Z,0.00
2019-05-05T01:32:17.592Z,0.00
2019-05-05T01:33:17.568Z,0.00
2019-05-05T01:34:17.542Z,0.00
2019-05-05T01:35:17.519Z,0.00
2019-05-05T01:36:17.490Z,0.00
2019-05-05T01:37:17.468Z,0.00
2019-05-05T01:38:17.439Z,0.00
2019-05-05T01:39:17.415Z,0.00
2019-05-05T01:40:17.389Z,0.00
2019-05-05T01:41:17.364Z,0.00
2019-05-05T01:42:17.339Z,0.00
2019-05-05T01:43:17.314Z,0.00
2019-05-05T01:44:17.288Z,0.00
2019-05-05T01:45:17.263Z,0.00
2019-05-05T01:46:17.238Z,0.00
2019-05-05T01:47:17.212Z,0.00
2019-05-05T01:48:17.188Z,0.00
2019-05-05T01:49:17.162Z,0.00
2019-05-05T01:50:20.953Z,0.00
2019-05-05T01:51:17.114Z,0.00
2019-05-05T01:52:17.086Z,0.00
2019-05-05T01:53:17.062Z,0.00
2019-05-05T01:54:17.037Z,0.00
2019-05-05T01:55:17.016Z,0.00
2019-05-05T01:56:16.986Z,0.00
2019-05-05T01:57:16.963Z,0.00
2019-05-05T01:58:16.937Z,0.00
2019-05-05T01:59:16.913Z,0.00
2019-05-05T02:00:16.893Z,0.00
2019-05-05T02:01:16.862Z,0.00
2019-05-05T02:02:16.838Z,0.00
2019-05-05T02:03:16.812Z,0.00
2019-05-05T02:04:16.787Z,0.00
2019-05-05T02:05:16.763Z,0.00
2019-05-05T02:06:16.740Z,0.00
2019-05-05T02:07:16.713Z,0.00
2019-05-05T02:08:16.688Z,0.00
2019-05-05T02:09:16.663Z,0.00
2019-05-05T02:10:16.638Z,0.00
2019-05-05T02:11:16.614Z,0.00
2019-05-05T02:12:16.587Z,0.00
2019-05-05T02:13:16.563Z,0.00
2019-05-05T02:14:16.539Z,0.00
2019-05-05T02:15:16.516Z,0.00
2019-05-05T02:16:16.490Z,0.00
2019-05-05T02:17:16.465Z,0.00
2019-05-05T02:18:16.440Z,0.00
2019-05-05T02:19:16.416Z,0.00
2019-05-05T02:20:28.597Z,0.00
2019-05-05T02:21:16.365Z,0.00
2019-05-05T02:22:16.339Z,0.00
2019-05-05T02:23:16.315Z,0.00
2019-05-05T02:24:16.288Z,0.00
2019-05-05T02:25:16.265Z,0.00
2019-05-05T02:26:16.239Z,0.00
2019-05-05T02:27:16.215Z,0.00
2019-05-05T02:28:16.190Z,0.00
2019-05-05T02:29:16.166Z,0.00
2019-05-05T02:30:16.515Z,0.00
2019-05-05T02:31:16.806Z,0.00
2019-05-05T02:32:16.266Z,0.00
2019-05-05T02:33:16.066Z,0.00
2019-05-05T02:34:16.537Z,0.00
2019-05-05T02:35:16.580Z,0.00
2019-05-05T02:36:16.186Z,0.00
2019-05-05T02:37:16.254Z,0.00
2019-05-05T02:38:16.019Z,0.00
2019-05-05T02:39:16.220Z,0.00
2019-05-05T02:40:16.179Z,0.00
2019-05-05T02:41:15.866Z,0.00
2019-05-05T02:42:15.845Z,0.00
2019-05-05T02:43:15.817Z,0.00
2019-05-05T02:44:15.791Z,0.00
2019-05-05T02:45:15.802Z,0.00
2019-05-05T02:46:15.742Z,0.00
2019-05-05T02:47:15.840Z,0.00
2019-05-05T02:48:15.757Z,0.00
2019-05-05T02:49:15.675Z,0.00
2019-05-05T02:50:15.709Z,0.00
2019-05-05T02:51:15.618Z,0.00
2019-05-05T02:52:15.596Z,0.00
2019-05-05T02:53:15.567Z,0.00
2019-05-05T02:54:15.542Z,0.00
2019-05-05T02:55:15.517Z,0.00
2019-05-05T02:56:15.495Z,0.00
2019-05-05T02:57:15.467Z,0.00
2019-05-05T02:58:15.443Z,0.00
2019-05-05T02:59:15.417Z,0.00
2019-05-05T03:00:15.392Z,0.00
2019-05-05T03:01:15.368Z,0.00
2019-05-05T03:02:15.345Z,0.00
2019-05-05T03:03:15.319Z,0.00
2019-05-05T03:04:15.296Z,0.00
2019-05-05T03:05:15.268Z,0.00
2019-05-05T03:06:15.243Z,0.00
2019-05-05T03:07:15.219Z,0.00
2019-05-05T03:08:15.194Z,0.00
2019-05-05T03:09:15.169Z,0.00
2019-05-05T03:10:15.149Z,0.00
2019-05-05T03:11:15.123Z,0.00
2019-05-05T03:12:15.097Z,0.00
2019-05-05T03:13:15.072Z,0.00
2019-05-05T03:14:15.045Z,0.00
2019-05-05T03:15:15.022Z,0.00
2019-05-05T03:16:14.995Z,0.00
2019-05-05T03:17:14.971Z,0.00
2019-05-05T03:18:14.946Z,0.00
2019-05-05T03:19:14.922Z,0.00
2019-05-05T03:20:14.896Z,0.00
2019-05-05T03:21:14.874Z,0.00
2019-05-05T03:22:14.847Z,0.00
2019-05-05T03:23:14.822Z,0.00
2019-05-05T03:24:14.799Z,0.00
2019-05-05T03:25:14.773Z,0.00
2019-05-05T03:26:14.748Z,0.00
2019-05-05T03:27:14.724Z,0.00
2019-05-05T03:28:14.698Z,0.00
2019-05-05T03:29:14.673Z,0.00
2019-05-05T03:30:15.487Z,0.00
2019-05-05T03:31:15.993Z,0.00
2019-05-05T03:32:16.217Z,0.00
2019-05-05T03:33:15.908Z,0.00
2019-05-05T03:34:16.365Z,0.00
2019-05-05T03:35:14.528Z,0.00
2019-05-05T03:36:14.501Z,0.00
2019-05-05T03:37:14.745Z,0.00
2019-05-05T03:38:14.452Z,0.00
2019-05-05T03:39:14.491Z,0.00
2019-05-05T03:40:14.906Z,0.00
2019-05-05T03:41:14.381Z,0.00
2019-05-05T03:42:14.354Z,0.00
2019-05-05T03:43:14.573Z,0.00
2019-05-05T03:44:14.305Z,0.00
2019-05-05T03:45:14.589Z,0.00
2019-05-05T03:46:14.256Z,0.00
2019-05-05T03:47:14.231Z,0.00
2019-05-05T03:48:14.209Z,0.00
2019-05-05T03:49:14.246Z,0.00
2019-05-05T03:50:14.488Z,0.00
2019-05-05T03:51:18.859Z,0.00
2019-05-05T03:52:14.108Z,5.63
2019-05-05T03:53:14.170Z,5.63
2019-05-05T03:54:14.764Z,5.63
2019-05-05T03:55:14.036Z,5.63
2019-05-05T03:56:14.139Z,5.63
2019-05-05T03:57:14.252Z,5.63
2019-05-05T03:58:14.685Z,5.63
2019-05-05T03:59:14.302Z,5.63
2019-05-05T04:00:14.237Z,5.63
2019-05-05T04:01:14.512Z,5.63
2019-05-05T04:02:14.240Z,5.63
2019-05-05T04:03:14.708Z,5.63
2019-05-05T04:04:13.954Z,5.63
2019-05-05T04:05:14.567Z,11.25
2019-05-05T04:06:14.679Z,11.25
2019-05-05T04:07:14.040Z,11.25
2019-05-05T04:08:14.471Z,11.25
2019-05-05T04:09:13.822Z,16.88
2019-05-05T04:10:14.113Z,16.88
2019-05-05T04:11:14.340Z,16.88
2019-05-05T04:12:13.835Z,16.88
2019-05-05T04:13:13.947Z,22.50
2019-05-05T04:14:14.212Z,22.50
2019-05-05T04:15:14.233Z,22.50
2019-05-05T04:16:13.730Z,28.13
2019-05-05T04:17:14.144Z,28.13
2019-05-05T04:18:14.606Z,28.13
2019-05-05T04:19:13.895Z,33.75
2019-05-05T04:20:13.879Z,33.75
2019-05-05T04:21:14.497Z,33.75
2019-05-05T04:22:13.662Z,33.75
2019-05-05T04:23:14.158Z,39.38
2019-05-05T04:24:14.547Z,39.38
2019-05-05T04:25:13.935Z,39.38
2019-05-05T04:26:14.249Z,45.00
2019-05-05T04:27:14.713Z,45.00
2019-05-05T04:28:13.710Z,45.00
2019-05-05T04:29:13.935Z,50.63
2019-05-05T04:30:14.301Z,50.63
2019-05-05T04:31:13.651Z,50.63
2019-05-05T04:32:14.104Z,50.63
2019-05-05T04:33:14.188Z,50.63
2019-05-05T04:34:13.530Z,50.63
2019-05-05T04:35:14.136Z,50.63
2019-05-05T04:36:14.432Z,56.25
2019-05-05T04:37:14.899Z,56.25
2019-05-05T04:38:13.929Z,56.25
2019-05-05T04:39:14.361Z,61.88
2019-05-05T04:40:14.806Z,67.50
2019-05-05T04:41:14.055Z,73.13
2019-05-05T04:42:14.013Z,73.13
2019-05-05T04:43:14.285Z,78.75
2019-05-05T04:44:14.878Z,78.75
2019-05-05T04:45:14.683Z,84.38
2019-05-05T04:46:14.030Z,84.38
2019-05-05T04:47:14.474Z,90.00
2019-05-05T04:48:13.742Z,95.63
2019-05-05T04:49:14.013Z,101.25
2019-05-05T04:50:14.595Z,101.25
2019-05-05T04:51:13.913Z,106.88
2019-05-05T04:52:14.286Z,106.88
2019-05-05T04:53:13.521Z,106.88
2019-05-05T04:54:14.206Z,106.88
2019-05-05T04:55:13.853Z,106.88
2019-05-05T04:56:14.120Z,112.50
2019-05-05T04:57:12.503Z,118.13
2019-05-05T04:58:13.693Z,118.13
2019-05-05T04:59:14.307Z,123.75
2019-05-05T05:00:13.734Z,129.38
2019-05-05T05:01:13.588Z,135.00
2019-05-05T05:02:14.295Z,135.00
2019-05-05T05:03:13.436Z,140.63
2019-05-05T05:04:13.759Z,140.63
2019-05-05T05:05:14.373Z,157.50
2019-05-05T05:06:14.526Z,157.50
2019-05-05T05:07:13.587Z,174.38
2019-05-05T05:08:13.905Z,174.38
2019-05-05T05:09:12.207Z,174.38
2019-05-05T05:10:13.848Z,180.00
2019-05-05T05:11:14.063Z,191.25
2019-05-05T05:12:12.133Z,213.75
2019-05-05T05:13:13.875Z,225.00
2019-05-05T05:14:14.229Z,208.13
2019-05-05T05:15:12.062Z,208.13
2019-05-05T05:16:13.877Z,241.88
2019-05-05T05:17:13.978Z,247.50
2019-05-05T05:18:11.995Z,258.75
2019-05-05T05:19:13.762Z,264.38
2019-05-05T05:20:14.030Z,270.00
2019-05-05T05:21:11.916Z,275.63
2019-05-05T05:22:13.704Z,286.88
2019-05-05T05:23:13.966Z,292.50
2019-05-05T05:24:11.849Z,303.75
2019-05-05T05:25:13.608Z,315.00
2019-05-05T05:26:13.760Z,320.63
2019-05-05T05:27:13.754Z,320.63
2019-05-05T05:28:11.753Z,326.25
2019-05-05T05:29:11.730Z,326.25
2019-05-05T05:30:13.569Z,303.75
2019-05-05T05:31:13.966Z,331.88
2019-05-05T05:32:11.666Z,337.50
2019-05-05T05:33:11.641Z,292.50
2019-05-05T05:34:11.619Z,253.13
2019-05-05T05:35:11.598Z,258.75
2019-05-05T05:36:11.575Z,258.75
2019-05-05T05:37:13.417Z,264.38
2019-05-05T05:38:13.838Z,270.00
2019-05-05T05:39:11.512Z,281.25
2019-05-05T05:40:11.490Z,298.13
2019-05-05T05:41:13.491Z,315.00
2019-05-05T05:42:13.616Z,343.13
2019-05-05T05:43:11.427Z,371.25
2019-05-05T05:44:11.405Z,410.63
2019-05-05T05:45:11.384Z,405.00
2019-05-05T05:46:13.528Z,405.00
2019-05-05T05:47:11.342Z,410.63
2019-05-05T05:48:11.323Z,427.50
2019-05-05T05:49:13.420Z,433.13
2019-05-05T05:50:11.279Z,438.75
2019-05-05T05:51:11.258Z,489.38
2019-05-05T05:52:15.816Z,427.50
2019-05-05T05:53:11.216Z,399.38
2019-05-05T05:54:11.196Z,343.13
2019-05-05T05:55:11.175Z,337.50
2019-05-05T05:56:11.154Z,326.25
2019-05-05T05:57:11.134Z,326.25
2019-05-05T05:58:11.115Z,326.25
2019-05-05T05:59:11.093Z,500.63
2019-05-05T06:00:11.073Z,388.13
2019-05-05T06:01:11.057Z,393.75
2019-05-05T06:02:14.804Z,388.13
2019-05-05T06:03:11.011Z,523.13
2019-05-05T06:04:10.991Z,360.00
2019-05-05T06:05:10.971Z,360.00
2019-05-05T06:06:10.950Z,371.25
2019-05-05T06:07:10.930Z,444.38
2019-05-05T06:08:10.909Z,348.75
2019-05-05T06:09:10.889Z,343.13
2019-05-05T06:10:21.488Z,337.50
2019-05-05T06:11:10.849Z,337.50
2019-05-05T06:12:10.827Z,337.50
2019-05-05T06:13:10.808Z,331.88
2019-05-05T06:14:10.788Z,331.88
2019-05-05T06:15:10.768Z,343.13
2019-05-05T06:16:10.747Z,348.75
2019-05-05T06:17:10.727Z,343.13
2019-05-05T06:18:10.707Z,343.13
2019-05-05T06:19:10.688Z,343.13
2019-05-05T06:20:10.665Z,343.13
2019-05-05T06:21:10.645Z,354.38
2019-05-05T06:22:10.625Z,348.75
2019-05-05T06:23:10.605Z,337.50
2019-05-05T06:24:10.588Z,320.63
2019-05-05T06:25:10.564Z,315.00
2019-05-05T06:26:10.546Z,309.38
2019-05-05T06:27:10.523Z,320.63
2019-05-05T06:28:10.502Z,337.50
2019-05-05T06:29:10.481Z,371.25
2019-05-05T06:30:10.461Z,399.38
2019-05-05T06:31:10.441Z,410.63
2019-05-05T06:32:10.419Z,416.25
2019-05-05T06:33:10.399Z,416.25
2019-05-05T06:34:10.379Z,405.00
2019-05-05T06:35:10.358Z,393.75
2019-05-05T06:36:10.337Z,376.88
2019-05-05T06:37:10.316Z,360.00
2019-05-05T06:38:10.296Z,365.63
2019-05-05T06:39:10.276Z,371.25
2019-05-05T06:40:10.255Z,371.25
2019-05-05T06:41:10.234Z,388.13
2019-05-05T06:42:10.214Z,410.63
2019-05-05T06:43:10.194Z,438.75
2019-05-05T06:44:10.174Z,450.00
2019-05-05T06:45:10.154Z,461.25
2019-05-05T06:46:10.132Z,466.88
2019-05-05T06:47:10.111Z,466.88
2019-05-05T06:48:10.090Z,466.88
2019-05-05T06:49:10.070Z,450.00
2019-05-05T06:50:10.050Z,427.50
2019-05-05T06:51:10.028Z,410.63
2019-05-05T06:52:10.006Z,393.75
2019-05-05T06:53:09.989Z,376.88
2019-05-05T06:54:09.967Z,348.75
2019-05-05T06:55:09.948Z,331.88
2019-05-05T06:56:09.926Z,326.25
2019-05-05T06:57:09.906Z,309.38
2019-05-05T06:58:09.885Z,275.63
2019-05-05T06:59:09.866Z,253.13
2019-05-05T07:00:09.842Z,236.25
2019-05-05T07:01:09.823Z,225.00
2019-05-05T07:02:09.802Z,241.88
2019-05-05T07:03:09.790Z,264.38
2019-05-05T07:04:09.760Z,258.75
2019-05-05T07:05:09.740Z,253.13
2019-05-05T07:06:09.719Z,253.13
2019-05-05T07:07:09.707Z,264.38
2019-05-05T07:08:09.678Z,298.13
2019-05-05T07:09:09.658Z,337.50
2019-05-05T07:10:09.637Z,376.88
2019-05-05T07:11:09.639Z,405.00
2019-05-05T07:12:09.595Z,405.00
2019-05-05T07:13:09.574Z,405.00
2019-05-05T07:14:09.554Z,405.00
2019-05-05T07:15:09.533Z,399.38
2019-05-05T07:16:12.167Z,393.75
2019-05-05T07:17:09.490Z,410.63
2019-05-05T07:18:09.470Z,427.50
2019-05-05T07:19:09.450Z,438.75
2019-05-05T07:20:09.429Z,579.38
2019-05-05T07:21:09.407Z,478.13
2019-05-05T07:22:09.388Z,871.88
2019-05-05T07:23:09.367Z,686.25
2019-05-05T07:24:09.347Z,1068.75
2019-05-05T07:25:09.328Z,787.50
2019-05-05T07:26:09.305Z,748.13
2019-05-05T07:27:09.285Z,725.63
2019-05-05T07:28:09.264Z,793.13
2019-05-05T07:29:09.244Z,866.25
2019-05-05T07:30:09.224Z,1057.50
2019-05-05T07:31:09.235Z,956.25
2019-05-05T07:32:09.187Z,1102.50
2019-05-05T07:33:09.167Z,905.63
2019-05-05T07:34:09.146Z,928.13
2019-05-05T07:35:09.127Z,1226.25
2019-05-05T07:36:09.107Z,1220.63
2019-05-05T07:37:09.092Z,1108.13
2019-05-05T07:38:09.070Z,1175.63
2019-05-05T07:39:09.051Z,922.50
2019-05-05T07:40:09.034Z,905.63
2019-05-05T07:41:09.015Z,905.63
2019-05-05T07:42:08.997Z,855.00
2019-05-05T07:43:08.979Z,821.25
2019-05-05T07:44:22.703Z,826.88
2019-05-05T07:45:20.279Z,860.63
2019-05-05T07:46:08.925Z,950.63
2019-05-05T07:47:08.908Z,1569.38
2019-05-05T07:48:08.893Z,1395.00
2019-05-05T07:49:08.874Z,1136.25
2019-05-05T07:50:14.544Z,1704.38
2019-05-05T07:51:08.840Z,759.38
2019-05-05T07:52:08.862Z,551.25
2019-05-05T07:53:14.693Z,421.88
2019-05-05T07:54:08.802Z,315.00
2019-05-05T07:55:08.775Z,270.00
2019-05-05T07:56:08.756Z,270.00
2019-05-05T07:57:08.739Z,286.88
2019-05-05T07:58:08.727Z,331.88
2019-05-05T07:59:08.706Z,382.50
2019-05-05T08:00:08.689Z,427.50
2019-05-05T08:01:08.671Z,410.63
2019-05-05T08:02:08.654Z,399.38
2019-05-05T08:03:08.642Z,410.63
2019-05-05T08:04:08.619Z,393.75
2019-05-05T08:05:08.602Z,393.75
2019-05-05T08:06:08.585Z,382.50
2019-05-05T08:07:08.567Z,410.63
2019-05-05T08:08:08.549Z,495.00
2019-05-05T08:09:08.531Z,511.88
2019-05-05T08:10:08.514Z,500.63
2019-05-05T08:11:08.497Z,624.38
2019-05-05T08:12:08.479Z,973.13
2019-05-05T08:13:08.458Z,939.38
2019-05-05T08:14:08.442Z,1800.00
2019-05-05T08:15:08.423Z,1023.75
2019-05-05T08:16:08.405Z,1198.13
2019-05-05T08:17:08.388Z,1220.63
2019-05-05T08:18:08.369Z,1175.63
2019-05-05T08:19:08.352Z,1203.75
2019-05-05T08:20:08.335Z,1299.38
2019-05-05T08:21:08.317Z,1074.38
2019-05-05T08:22:08.301Z,787.50
2019-05-05T08:23:08.398Z,652.50
2019-05-05T08:24:08.267Z,714.38
2019-05-05T08:25:08.251Z,888.75
2019-05-05T08:26:08.235Z,1001.25
2019-05-05T08:27:08.222Z,1192.50
2019-05-05T08:28:08.202Z,1018.13
2019-05-05T08:29:08.186Z,995.63
2019-05-05T08:30:08.170Z,900.00
2019-05-05T08:31:08.154Z,950.63
2019-05-05T08:32:08.137Z,950.63
2019-05-05T08:33:08.122Z,905.63
2019-05-05T08:34:08.109Z,905.63
2019-05-05T08:35:08.091Z,1023.75
2019-05-05T08:36:08.075Z,1158.75
2019-05-05T08:37:08.060Z,1608.75
2019-05-05T08:38:08.044Z,1445.63
2019-05-05T08:39:08.029Z,1288.13
2019-05-05T08:40:08.017Z,1271.25
2019-05-05T08:41:07.998Z,1305.00
2019-05-05T08:42:07.983Z,1372.50
2019-05-05T08:43:07.970Z,1299.38
2019-05-05T08:44:07.953Z,1361.25
2019-05-05T08:45:07.937Z,1271.25
2019-05-05T08:46:07.924Z,995.63
2019-05-05T08:47:07.910Z,950.63
2019-05-05T08:48:07.895Z,877.50
2019-05-05T08:49:07.881Z,2233.13
2019-05-05T08:50:07.872Z,860.63
2019-05-05T08:51:07.852Z,1108.13
2019-05-05T08:52:07.838Z,877.50
2019-05-05T08:53:08.549Z,933.75
2019-05-05T08:54:07.812Z,1231.88
2019-05-05T08:55:07.799Z,1063.13
2019-05-05T08:56:07.784Z,1597.50
2019-05-05T08:57:07.771Z,1923.75
2019-05-05T08:58:07.756Z,1518.75
2019-05-05T08:59:07.744Z,1231.88
2019-05-05T09:00:07.732Z,1681.88
2019-05-05T09:01:07.718Z,1620.00
2019-05-05T09:02:07.704Z,2205.00
2019-05-05T09:03:07.693Z,2902.50
2019-05-05T09:04:07.678Z,2981.25
2019-05-05T09:05:07.668Z,3060.00
2019-05-05T09:06:07.653Z,1591.88
2019-05-05T09:07:07.642Z,821.25
2019-05-05T09:08:07.629Z,3296.25
2019-05-05T09:09:07.617Z,3380.63
2019-05-05T09:10:07.606Z,3481.88
2019-05-05T09:11:07.621Z,3504.38
2019-05-05T09:12:07.585Z,3420.00
2019-05-05T09:13:07.575Z,3476.25
2019-05-05T09:14:07.564Z,3442.50
2019-05-05T09:15:07.556Z,3448.13
2019-05-05T09:16:07.544Z,3369.38
2019-05-05T09:17:07.537Z,3481.88
2019-05-05T09:18:07.528Z,3313.13
2019-05-05T09:19:07.520Z,3526.88
2019-05-05T09:20:07.512Z,3678.75
2019-05-05T09:21:07.506Z,3712.50
2019-05-05T09:22:08.815Z,3718.13
2019-05-05T09:23:07.496Z,3729.38
2019-05-05T09:24:07.488Z,3892.50
2019-05-05T09:25:07.487Z,3183.75
2019-05-05T09:26:07.478Z,2688.75
2019-05-05T09:27:07.470Z,4005.00
2019-05-05T09:28:07.464Z,1434.38
2019-05-05T09:29:07.460Z,1023.75
2019-05-05T09:30:07.458Z,928.13
2019-05-05T09:31:07.452Z,945.00
2019-05-05T09:32:07.446Z,990.00
2019-05-05T09:33:07.443Z,973.13
2019-05-05T09:34:07.441Z,798.75
2019-05-05T09:35:07.437Z,691.88
2019-05-05T09:36:07.426Z,585.00
2019-05-05T09:37:07.422Z,551.25
2019-05-05T09:38:07.415Z,528.75
2019-05-05T09:39:07.409Z,489.38
2019-05-05T09:40:07.402Z,511.88
2019-05-05T09:41:07.394Z,506.25
2019-05-05T09:42:07.387Z,455.63
2019-05-05T09:43:07.383Z,427.50
2019-05-05T09:44:07.370Z,416.25
2019-05-05T09:45:07.362Z,393.75
2019-05-05T09:46:07.352Z,405.00
2019-05-05T09:47:07.344Z,405.00
2019-05-05T09:48:07.333Z,410.63
2019-05-05T09:49:07.327Z,483.75
2019-05-05T09:50:07.313Z,624.38
2019-05-05T09:51:07.304Z,697.50
2019-05-05T09:52:07.293Z,759.38
2019-05-05T09:53:07.282Z,607.50
2019-05-05T09:54:13.935Z,573.75
2019-05-05T09:55:07.260Z,517.50
2019-05-05T09:56:07.247Z,472.50
2019-05-05T09:57:07.237Z,416.25
2019-05-05T09:58:07.224Z,348.75
2019-05-05T09:59:07.212Z,286.88
2019-05-05T10:00:07.203Z,247.50
2019-05-05T10:01:07.186Z,225.00
2019-05-05T10:02:07.174Z,219.38
2019-05-05T10:03:07.161Z,230.63
2019-05-05T10:04:07.147Z,258.75
2019-05-05T10:05:07.134Z,281.25
2019-05-05T10:06:07.120Z,281.25
2019-05-05T10:07:07.107Z,309.38
2019-05-05T10:08:07.092Z,337.50
2019-05-05T10:09:07.077Z,348.75
2019-05-05T10:10:07.068Z,348.75
2019-05-05T10:11:07.054Z,382.50
2019-05-05T10:12:07.037Z,410.63
2019-05-05T10:13:07.020Z,438.75
2019-05-05T10:14:07.006Z,478.13
2019-05-05T10:15:07.668Z,562.50
2019-05-05T10:16:06.975Z,680.63
2019-05-05T10:17:06.959Z,793.13
2019-05-05T10:18:06.947Z,849.38
2019-05-05T10:19:06.930Z,911.25
2019-05-05T10:20:06.914Z,990.00
2019-05-05T10:21:06.899Z,1575.00
2019-05-05T10:22:06.888Z,3645.00
2019-05-05T10:23:06.868Z,2756.25
2019-05-05T10:24:06.851Z,4207.50
2019-05-05T10:25:06.838Z,4269.38
2019-05-05T10:26:06.827Z,4258.13
2019-05-05T10:27:06.819Z,4218.75
2019-05-05T10:28:06.796Z,4218.75
2019-05-05T10:29:06.784Z,4376.25
2019-05-05T10:30:06.772Z,4241.25
2019-05-05T10:31:06.761Z,748.13
2019-05-05T10:32:06.750Z,753.75
2019-05-05T10:33:06.740Z,765.00
2019-05-05T10:34:06.744Z,810.00
2019-05-05T10:35:06.720Z,832.50
2019-05-05T10:36:06.711Z,933.75
2019-05-05T10:37:06.699Z,1136.25
2019-05-05T10:38:06.691Z,2323.13
2019-05-05T10:39:06.679Z,1586.25
2019-05-05T10:40:06.668Z,1445.63
2019-05-05T10:41:06.658Z,1620.00
2019-05-05T10:42:06.648Z,1220.63
2019-05-05T10:43:06.640Z,1496.25
2019-05-05T10:44:06.627Z,2671.88
2019-05-05T10:45:06.617Z,1985.63
2019-05-05T10:46:06.607Z,2199.38
2019-05-05T10:47:06.598Z,2508.75
2019-05-05T10:48:06.598Z,1260.00
2019-05-05T10:49:06.578Z,1192.50
2019-05-05T10:50:06.567Z,1209.38
2019-05-05T10:51:06.557Z,933.75
2019-05-05T10:52:06.547Z,855.00
2019-05-05T10:53:06.541Z,1080.00
2019-05-05T10:54:06.526Z,1552.50
2019-05-05T10:55:06.517Z,2728.13
2019-05-05T10:56:06.506Z,2491.88
2019-05-05T10:57:06.496Z,1153.13
2019-05-05T10:58:06.489Z,1192.50
2019-05-05T10:59:06.476Z,2975.63
2019-05-05T11:00:12.371Z,928.13
2019-05-05T11:01:06.455Z,4038.75
2019-05-05T11:02:06.446Z,4190.63
2019-05-05T11:03:06.437Z,4353.75
2019-05-05T11:04:06.426Z,4466.25
2019-05-05T11:05:06.417Z,3892.50
2019-05-05T11:06:06.409Z,1389.38
2019-05-05T11:07:06.401Z,1063.13
2019-05-05T11:08:06.391Z,939.38
2019-05-05T11:09:06.384Z,4494.38
2019-05-05T11:10:06.376Z,4331.25
2019-05-05T11:11:06.367Z,1721.25
2019-05-05T11:12:06.362Z,4657.50
2019-05-05T11:13:06.353Z,4635.00
2019-05-05T11:14:06.345Z,4663.13
2019-05-05T11:15:06.341Z,2638.13
2019-05-05T11:16:06.332Z,759.38
2019-05-05T11:17:06.325Z,815.63
2019-05-05T11:18:06.319Z,4595.63
2019-05-05T11:19:06.316Z,4567.50
2019-05-05T11:20:06.306Z,4635.00
2019-05-05T11:21:06.302Z,4685.63
2019-05-05T11:22:06.296Z,4629.38
2019-05-05T11:23:06.290Z,4635.00
2019-05-05T11:24:06.283Z,4595.63
2019-05-05T11:25:06.282Z,4533.75
2019-05-05T11:26:06.274Z,4539.38
2019-05-05T11:27:06.270Z,3971.25
2019-05-05T11:28:06.264Z,4528.13
2019-05-05T11:29:06.261Z,4005.00
2019-05-05T11:30:06.256Z,4387.50
2019-05-05T11:31:06.255Z,4488.75
2019-05-05T11:32:06.248Z,4449.38
2019-05-05T11:33:06.246Z,1063.13
2019-05-05T11:34:06.240Z,2643.75
2019-05-05T11:35:06.235Z,613.13
2019-05-05T11:36:06.232Z,601.88
2019-05-05T11:37:06.229Z,748.13
2019-05-05T11:38:06.224Z,1203.75
2019-05-05T11:39:06.219Z,4573.13
2019-05-05T11:40:06.213Z,4590.00
2019-05-05T11:41:06.208Z,4573.13
2019-05-05T11:42:06.206Z,4539.38
2019-05-05T11:43:06.197Z,4556.25
2019-05-05T11:44:06.193Z,4786.88
2019-05-05T11:45:06.202Z,3065.63
2019-05-05T11:46:06.183Z,4561.88
2019-05-05T11:47:06.179Z,2683.13
2019-05-05T11:48:06.174Z,4871.25
2019-05-05T11:49:06.172Z,2351.25
2019-05-05T11:50:06.167Z,4140.00
2019-05-05T11:51:06.162Z,4533.75
2019-05-05T11:52:06.158Z,1068.75
2019-05-05T11:53:06.153Z,1203.75
2019-05-05T11:54:06.148Z,2255.63
2019-05-05T11:55:11.500Z,990.00
2019-05-05T11:56:06.138Z,961.88
2019-05-05T11:57:06.133Z,973.13
2019-05-05T11:58:06.128Z,1085.63
2019-05-05T11:59:06.123Z,1057.50
2019-05-05T12:00:06.115Z,3763.13
2019-05-05T12:01:06.109Z,4488.75
2019-05-05T12:02:06.103Z,4629.38
2019-05-05T12:03:06.096Z,4640.63
2019-05-05T12:04:06.094Z,4820.63
2019-05-05T12:05:06.083Z,4781.25
2019-05-05T12:06:06.078Z,4899.38
2019-05-05T12:07:06.096Z,1929.38
2019-05-05T12:08:06.065Z,973.13
2019-05-05T12:09:06.058Z,725.63
2019-05-05T12:10:06.058Z,596.25
2019-05-05T12:11:06.046Z,551.25
2019-05-05T12:12:06.039Z,556.88
2019-05-05T12:13:06.038Z,596.25
2019-05-05T12:14:06.026Z,742.50
2019-05-05T12:15:06.018Z,1035.00
2019-05-05T12:16:06.012Z,3307.50
2019-05-05T12:17:06.002Z,4550.63
2019-05-05T12:18:05.996Z,4539.38
2019-05-05T12:19:05.989Z,4612.50
2019-05-05T12:20:05.979Z,4618.13
2019-05-05T12:21:05.971Z,4646.25
2019-05-05T12:22:05.964Z,3993.75
2019-05-05T12:23:05.960Z,995.63
2019-05-05T12:24:05.948Z,838.13
2019-05-05T12:25:05.963Z,793.13
2019-05-05T12:26:05.936Z,596.25
2019-05-05T12:27:05.927Z,534.38
2019-05-05T12:28:05.918Z,506.25
2019-05-05T12:29:05.910Z,455.63
2019-05-05T12:30:05.904Z,399.38
2019-05-05T12:31:05.898Z,365.63
2019-05-05T12:32:05.885Z,365.63
2019-05-05T12:33:05.876Z,388.13
2019-05-05T12:34:05.868Z,438.75
2019-05-05T12:35:05.861Z,646.88
2019-05-05T12:36:05.849Z,669.38
2019-05-05T12:37:05.839Z,770.63
2019-05-05T12:38:05.829Z,1035.00
2019-05-05T12:39:05.823Z,1338.75